Time;durP1;ratioP1;P1;durP2;ratioP2;P2;SDS_P1;SDS_P2;PMS_P1;PMS_P2;Temp;Humidity;BMP_temperature;BMP_pressure;BME280_temperature;BME280_humidity;BME280_pressure;Samples;Min_cycle;Max_cycle;Signal;HPM_P1;HPM_P2
2023/06/06 00:01:45;;;;;;;5.13;0.70;;;;;;;;;;5088433;28;20040;-76
2023/06/06 00:04:16;;;;;;;8.25;1.23;;;;;;;;;;5105530;28;20047;-75
2023/06/06 00:06:48;;;;;;;4.07;0.90;;;;;;;;;;5105302;28;20051;-78
2023/06/06 00:09:20;;;;;;;10.25;1.27;;;;;;;;;;5105446;28;20048;-77
2023/06/06 00:11:51;;;;;;;8.30;1.15;;;;;;;;;;5105431;28;20051;-77
2023/06/06 00:14:22;;;;;;;6.43;0.90;;;;;;;;;;5105438;28;20532;-77
2023/06/06 00:16:55;;;;;;;5.97;0.90;;;;;;;;;;5106046;28;20058;-76
2023/06/06 00:19:28;;;;;;;7.30;0.90;;;;;;;;;;5105764;28;20048;-76
2023/06/06 00:21:59;;;;;;;6.22;0.90;;;;;;;;;;5086221;28;20048;-76
2023/06/06 00:24:29;;;;;;;5.28;1.15;;;;;;;;;;5104716;28;20043;-76
2023/06/06 00:27:02;;;;;;;15.07;2.38;;;;;;;;;;5108662;28;20521;-77
2023/06/06 00:29:34;;;;;;;5.13;0.60;;;;;;;;;;5109887;28;20374;-78
2023/06/06 00:32:05;;;;;;;16.23;1.95;;;;;;;;;;5109445;28;20498;-75
2023/06/06 00:34:36;;;;;;;8.10;1.00;;;;;;;;;;5109474;28;20039;-78
2023/06/06 00:37:07;;;;;;;6.57;1.25;;;;;;;;;;5090373;28;20528;-77
2023/06/06 00:39:37;;;;;;;3.28;0.80;;;;;;;;;;5109102;28;20059;-76
2023/06/06 00:42:09;;;;;;;5.97;1.42;;;;;;;;;;5090171;28;20052;-77
2023/06/06 00:44:40;;;;;;;5.57;1.10;;;;;;;;;;5109190;28;20046;-76
2023/06/06 00:47:13;;;;;;;11.70;1.38;;;;;;;;;;5090362;28;20059;-77
2023/06/06 00:49:46;;;;;;;8.35;1.15;;;;;;;;;;5091346;28;20050;-76
2023/06/06 00:52:17;;;;;;;4.88;0.93;;;;;;;;;;5109614;28;20047;-77
2023/06/06 00:54:48;;;;;;;8.77;1.98;;;;;;;;;;5109119;28;20403;-75
2023/06/06 00:57:20;;;;;;;8.63;1.23;;;;;;;;;;5108628;28;20060;-75
2023/06/06 00:59:53;;;;;;;7.75;0.88;;;;;;;;;;5108483;28;20054;-77
2023/06/06 01:02:24;;;;;;;8.30;1.05;;;;;;;;;;5108929;28;20048;-76
2023/06/06 01:04:57;;;;;;;4.80;0.95;;;;;;;;;;5088097;28;20326;-84
2023/06/06 01:07:29;;;;;;;10.25;1.30;;;;;;;;;;5107739;28;20043;-75
2023/06/06 01:10:00;;;;;;;6.55;1.17;;;;;;;;;;5089679;28;20417;-76
2023/06/06 01:12:49;;;;;;;10.88;1.00;;;;;;;;;;5108135;28;20117;-77
2023/06/06 01:15:41;;;;;;;6.18;0.80;;;;;;;;;;5107372;28;20055;-77
2023/06/06 01:18:13;;;;;;;7.22;0.77;;;;;;;;;;5107949;28;20517;-76
2023/06/06 01:20:45;;;;;;;6.80;1.20;;;;;;;;;;5089150;28;20426;-77
2023/06/06 01:23:16;;;;;;;7.75;1.45;;;;;;;;;;5108602;28;20048;-77
2023/06/06 01:25:49;;;;;;;10.65;1.25;;;;;;;;;;5108720;28;20044;-75
2023/06/06 01:28:23;;;;;;;3.97;0.80;;;;;;;;;;5109185;28;20055;-78
2023/06/06 01:30:55;;;;;;;5.88;1.20;;;;;;;;;;5108576;28;20047;-76
2023/06/06 01:33:52;;;;;;;7.63;1.02;;;;;;;;;;5088923;28;20055;-78
2023/06/06 01:36:37;;;;;;;6.13;1.50;;;;;;;;;;5108322;28;20070;-78
2023/06/06 01:39:15;;;;;;;7.25;1.48;;;;;;;;;;5107660;28;20051;-77
2023/06/06 01:41:48;;;;;;;6.78;1.50;;;;;;;;;;5108217;28;20679;-75
2023/06/06 01:44:20;;;;;;;6.72;1.52;;;;;;;;;;5089768;28;20051;-77
2023/06/06 01:46:52;;;;;;;6.05;1.35;;;;;;;;;;5088846;28;20047;-76
2023/06/06 01:49:25;;;;;;;5.50;0.88;;;;;;;;;;5089621;28;20506;-77
2023/06/06 01:51:57;;;;;;;6.50;1.02;;;;;;;;;;5089127;28;20047;-77
2023/06/06 01:54:28;;;;;;;4.30;1.02;;;;;;;;;;5072826;28;20066;-75
2023/06/06 01:56:59;;;;;;;10.70;1.77;;;;;;;;;;5108394;28;20059;-78
2023/06/06 01:59:31;;;;;;;10.80;1.73;;;;;;;;;;5088618;28;20055;-79
2023/06/06 02:02:02;;;;;;;6.60;1.00;;;;;;;;;;5089056;28;20395;-75
2023/06/06 02:04:32;;;;;;;7.13;1.08;;;;;;;;;;5107410;28;20051;-75
2023/06/06 02:07:02;;;;;;;8.35;1.33;;;;;;;;;;5107830;28;20094;-76
2023/06/06 02:09:33;;;;;;;3.83;1.17;;;;;;;;;;5088515;28;20056;-77
2023/06/06 02:12:05;;;;;;;7.07;1.40;;;;;;;;;;5088817;28;20055;-75
2023/06/06 02:14:36;;;;;;;9.80;1.95;;;;;;;;;;5089614;28;20062;-76
2023/06/06 02:17:07;;;;;;;5.72;1.38;;;;;;;;;;5089209;28;20044;-76
2023/06/06 02:19:39;;;;;;;10.35;1.52;;;;;;;;;;5089213;28;20464;-78
2023/06/06 02:22:09;;;;;;;7.95;1.88;;;;;;;;;;5107902;28;20504;-77
2023/06/06 02:24:49;;;;;;;12.20;1.63;;;;;;;;;;5107157;28;20047;-75
2023/06/06 02:27:21;;;;;;;5.03;1.05;;;;;;;;;;5107409;28;20051;-78
2023/06/06 02:29:51;;;;;;;5.38;1.40;;;;;;;;;;5088302;28;20055;-76
2023/06/06 02:32:24;;;;;;;8.30;1.13;;;;;;;;;;5106693;28;20059;-76
2023/06/06 02:34:57;;;;;;;9.57;1.30;;;;;;;;;;5107217;28;20529;-76
2023/06/06 02:37:28;;;;;;;3.97;1.30;;;;;;;;;;5105639;28;20074;-76
2023/06/06 02:39:59;;;;;;;13.55;1.70;;;;;;;;;;5106566;28;20062;-76
2023/06/06 02:42:30;;;;;;;6.57;1.70;;;;;;;;;;5107567;28;20486;-75
2023/06/06 02:45:01;;;;;;;10.93;3.97;;;;;;;;;;5087706;28;20051;-75
2023/06/06 02:47:32;;;;;;;13.50;7.85;;;;;;;;;;5088199;28;20059;-77
2023/06/06 02:50:05;;;;;;;9.95;4.82;;;;;;;;;;5106918;28;20055;-76
2023/06/06 02:52:38;;;;;;;6.60;1.92;;;;;;;;;;5087432;28;20059;-73
2023/06/06 02:55:09;;;;;;;8.02;1.30;;;;;;;;;;5106900;28;20039;-75
2023/06/06 02:57:39;;;;;;;11.13;1.65;;;;;;;;;;5088435;28;20039;-78
2023/06/06 03:00:11;;;;;;;4.88;1.20;;;;;;;;;;5088258;28;20051;-76
2023/06/06 03:02:42;;;;;;;7.10;1.52;;;;;;;;;;5106701;28;20050;-75
2023/06/06 03:05:14;;;;;;;9.23;1.50;;;;;;;;;;5087888;28;20043;-74
2023/06/06 03:07:45;;;;;;;6.93;1.17;;;;;;;;;;5106553;28;20047;-75
2023/06/06 03:10:15;;;;;;;16.27;1.75;;;;;;;;;;5106349;28;20043;-75
2023/06/06 03:12:50;;;;;;;8.10;1.48;;;;;;;;;;5087322;28;20051;-77
2023/06/06 03:15:21;;;;;;;5.05;1.33;;;;;;;;;;5087435;28;20054;-75
2023/06/06 03:17:53;;;;;;;12.52;2.00;;;;;;;;;;5071318;28;20117;-75
2023/06/06 03:20:30;;;;;;;5.15;1.38;;;;;;;;;;5087495;28;20048;-76
2023/06/06 03:23:13;;;;;;;6.18;1.60;;;;;;;;;;5087429;28;20055;-76
2023/06/06 03:25:44;;;;;;;7.47;1.40;;;;;;;;;;5071235;28;20553;-75
2023/06/06 03:28:18;;;;;;;13.98;1.58;;;;;;;;;;5087593;28;20058;-75
2023/06/06 03:30:49;;;;;;;6.70;1.90;;;;;;;;;;5087271;28;20051;-76
2023/06/06 03:33:22;;;;;;;5.65;1.85;;;;;;;;;;5086999;28;20070;-76
2023/06/06 03:35:55;;;;;;;6.43;1.52;;;;;;;;;;5087571;28;20514;-77
2023/06/06 03:38:28;;;;;;;5.03;1.33;;;;;;;;;;5105493;28;20062;-75
2023/06/06 03:40:58;;;;;;;7.10;1.13;;;;;;;;;;5087733;28;20422;-76
2023/06/06 03:43:30;;;;;;;6.28;1.52;;;;;;;;;;5087599;28;20050;-75
2023/06/06 03:46:02;;;;;;;3.67;1.27;;;;;;;;;;5087561;28;20634;-76
2023/06/06 03:48:33;;;;;;;6.47;1.40;;;;;;;;;;5106146;28;20043;-75
2023/06/06 03:51:03;;;;;;;6.28;1.40;;;;;;;;;;5088820;28;20114;-76
2023/06/06 03:53:34;;;;;;;8.20;1.30;;;;;;;;;;5108017;28;20490;-75
2023/06/06 03:56:06;;;;;;;5.22;1.00;;;;;;;;;;5107461;28;20405;-74
2023/06/06 03:58:37;;;;;;;10.75;1.48;;;;;;;;;;5112553;28;20044;-75
2023/06/06 04:01:08;;;;;;;5.70;1.48;;;;;;;;;;5100799;28;20052;-74
2023/06/06 04:03:39;;;;;;;7.00;1.40;;;;;;;;;;5101959;28;20061;-75
2023/06/06 04:06:10;;;;;;;2.92;1.05;;;;;;;;;;5090146;28;20098;-75
2023/06/06 04:08:40;;;;;;;5.32;1.13;;;;;;;;;;5089413;28;20074;-75
2023/06/06 04:11:09;;;;;;;;;;;;;;;;;;5113539;28;20049;-75
2023/06/06 04:13:40;;;;;;;8.68;1.38;;;;;;;;;;5088613;28;19924;-77
2023/06/06 04:16:12;;;;;;;8.43;0.95;;;;;;;;;;5086659;28;20414;-76
2023/06/06 04:18:43;;;;;;;8.98;1.40;;;;;;;;;;5105214;28;20485;-79
2023/06/06 04:21:13;;;;;;;7.65;1.20;;;;;;;;;;5105623;28;20070;-76
2023/06/06 04:23:45;;;;;;;4.32;1.05;;;;;;;;;;5105314;28;20048;-75
2023/06/06 04:26:33;;;;;;;4.20;1.02;;;;;;;;;;5105666;28;20047;-77
2023/06/06 04:29:04;;;;;;;7.75;1.25;;;;;;;;;;5086479;28;20052;-76
2023/06/06 04:31:34;;;;;;;7.53;1.40;;;;;;;;;;5086900;28;20040;-77
2023/06/06 04:34:05;;;;;;;4.68;1.30;;;;;;;;;;5105004;28;20086;-78
2023/06/06 04:36:40;;;;;;;5.78;1.10;;;;;;;;;;5086849;28;20051;-76
2023/06/06 04:39:12;;;;;;;4.85;1.13;;;;;;;;;;5086470;28;20043;-76
2023/06/06 04:41:43;;;;;;;6.75;1.30;;;;;;;;;;5105612;28;20051;-77
2023/06/06 04:44:17;;;;;;;3.08;1.10;;;;;;;;;;5086472;28;20048;-78
2023/06/06 04:46:52;;;;;;;6.53;1.08;;;;;;;;;;5086364;28;20059;-78
2023/06/06 04:49:23;;;;;;;4.03;0.95;;;;;;;;;;5086541;28;20052;-77
2023/06/06 04:51:56;;;;;;;3.38;1.20;;;;;;;;;;5085876;28;20707;-78
2023/06/06 04:54:26;;;;;;;13.63;1.10;;;;;;;;;;5105360;28;20070;-78
2023/06/06 04:56:58;;;;;;;5.65;1.00;;;;;;;;;;5105132;28;20056;-75
2023/06/06 04:59:32;;;;;;;2.30;0.93;;;;;;;;;;5104834;28;20044;-77
2023/06/06 05:02:02;;;;;;;1.85;0.90;;;;;;;;;;5105176;28;20051;-77
2023/06/06 05:04:33;;;;;;;7.35;1.13;;;;;;;;;;5105028;28;20048;-75
2023/06/06 05:07:05;;;;;;;7.13;0.90;;;;;;;;;;5087216;28;20048;-75
2023/06/06 05:09:39;;;;;;;6.00;1.00;;;;;;;;;;5104944;28;20039;-76
2023/06/06 05:12:10;;;;;;;8.10;1.13;;;;;;;;;;5106684;28;20039;-76
2023/06/06 05:14:40;;;;;;;4.20;1.05;;;;;;;;;;5109121;28;20090;-78
2023/06/06 05:17:18;;;;;;;6.60;0.88;;;;;;;;;;5108447;28;20047;-77
2023/06/06 05:19:48;;;;;;;5.00;0.80;;;;;;;;;;5108534;28;20040;-77
2023/06/06 05:22:18;;;;;;;10.60;1.40;;;;;;;;;;5107944;28;20051;-79
2023/06/06 05:24:50;;;;;;;7.55;0.80;;;;;;;;;;5108315;28;20050;-75
2023/06/06 05:27:21;;;;;;;5.75;1.05;;;;;;;;;;5109173;28;20051;-76
2023/06/06 05:29:51;;;;;;;7.50;1.17;;;;;;;;;;5108713;28;20036;-77
2023/06/06 05:32:21;;;;;;;5.05;1.10;;;;;;;;;;5108697;28;20521;-77
2023/06/06 05:34:51;;;;;;;5.55;0.90;;;;;;;;;;5108150;28;20047;-76
2023/06/06 05:37:21;;;;;;;;;;;;;;;;;;5108938;28;20074;-78
2023/06/06 05:39:52;;;;;;;8.98;0.90;;;;;;;;;;5108394;28;20382;-76
2023/06/06 05:42:23;;;;;;;7.85;1.10;;;;;;;;;;5108304;28;20044;-75
2023/06/06 05:44:53;;;;;;;7.90;0.90;;;;;;;;;;5108286;28;20047;-75
2023/06/06 05:47:23;;;;;;;;;;;;;;;;;;5108627;28;20066;-76
2023/06/06 05:49:53;;;;;;;3.45;1.00;;;;;;;;;;5107907;28;19924;-76
2023/06/06 05:52:23;;;;;;;;;;;;;;;;;;5108689;28;20082;-78
2023/06/06 05:55:05;;;;;;;4.07;0.70;;;;;;;;;;5107823;28;19923;-76
2023/06/06 05:57:35;;;;;;;5.45;0.90;;;;;;;;;;5107640;28;20054;-76
2023/06/06 06:00:08;;;;;;;6.18;0.93;;;;;;;;;;5106521;28;20506;-75
2023/06/06 06:02:41;;;;;;;6.13;1.05;;;;;;;;;;5090246;28;20070;-79
2023/06/06 06:05:13;;;;;;;4.55;0.88;;;;;;;;;;5107838;28;20055;-75
2023/06/06 06:07:45;;;;;;;4.07;0.90;;;;;;;;;;5107737;28;20048;-75
2023/06/06 06:10:16;;;;;;;2.05;0.63;;;;;;;;;;5107343;28;20043;-78
2023/06/06 06:12:47;;;;;;;11.32;1.23;;;;;;;;;;5107496;28;20398;-76
2023/06/06 06:15:18;;;;;;;11.48;1.00;;;;;;;;;;5107767;28;20059;-76
2023/06/06 06:17:48;;;;;;;6.13;0.75;;;;;;;;;;5107413;28;20052;-74
2023/06/06 06:20:22;;;;;;;6.68;0.90;;;;;;;;;;5107619;28;20043;-75
2023/06/06 06:22:53;;;;;;;5.22;1.60;;;;;;;;;;5107062;28;20510;-75
2023/06/06 06:25:24;;;;;;;7.68;1.10;;;;;;;;;;5107302;28;20055;-76
2023/06/06 06:27:56;;;;;;;3.17;1.00;;;;;;;;;;5088553;28;20521;-76
2023/06/06 06:30:26;;;;;;;13.02;1.15;;;;;;;;;;5107242;28;20040;-75
2023/06/06 06:32:57;;;;;;;4.38;0.90;;;;;;;;;;5106984;28;20036;-74
2023/06/06 06:35:28;;;;;;;4.95;1.13;;;;;;;;;;5107908;28;20052;-76
2023/06/06 06:37:59;;;;;;;9.65;1.30;;;;;;;;;;5106926;28;20387;-75
2023/06/06 06:40:30;;;;;;;6.63;0.90;;;;;;;;;;5107505;28;20043;-75
2023/06/06 06:43:02;;;;;;;8.38;0.85;;;;;;;;;;5106801;28;20054;-74
2023/06/06 06:45:41;;;;;;;3.50;0.85;;;;;;;;;;5087480;28;20051;-77
2023/06/06 06:48:11;;;;;;;4.38;0.60;;;;;;;;;;5107400;28;20057;-75
2023/06/06 06:50:41;;;;;;;;;;;;;;;;;;5088202;28;20047;-76
2023/06/06 06:53:13;;;;;;;3.28;1.02;;;;;;;;;;5107130;28;19920;-75
2023/06/06 06:55:45;;;;;;;8.07;0.68;;;;;;;;;;5106913;28;20051;-75
2023/06/06 06:58:25;;;;;;;3.15;0.88;;;;;;;;;;5107532;28;20048;-77
2023/06/06 07:00:56;;;;;;;8.27;1.00;;;;;;;;;;5106415;28;20051;-77
2023/06/06 07:03:26;;;;;;;2.53;0.65;;;;;;;;;;5106595;28;20063;-77
2023/06/06 07:05:57;;;;;;;6.63;0.93;;;;;;;;;;5088111;28;20047;-75
2023/06/06 07:08:30;;;;;;;4.90;0.98;;;;;;;;;;5106784;28;20050;-76
2023/06/06 07:11:00;;;;;;;6.05;0.70;;;;;;;;;;5106705;28;20047;-76
2023/06/06 07:13:31;;;;;;;;;;;;;;;;;;5107024;28;20047;-77
2023/06/06 07:16:04;;;;;;;6.97;0.88;;;;;;;;;;5106766;28;19924;-76
2023/06/06 07:18:34;;;;;;;3.08;0.88;;;;;;;;;;5106224;28;20494;-76
2023/06/06 07:21:04;;;;;;;4.43;1.05;;;;;;;;;;5105803;28;20456;-76
2023/06/06 07:23:34;;;;;;;1.80;0.60;;;;;;;;;;5106345;28;20044;-76
2023/06/06 07:26:08;;;;;;;4.68;0.85;;;;;;;;;;5105949;28;20413;-77
2023/06/06 07:28:38;;;;;;;4.05;0.85;;;;;;;;;;5106245;28;20063;-76
2023/06/06 07:31:11;;;;;;;5.22;0.88;;;;;;;;;;5106773;28;20600;-75
2023/06/06 07:33:42;;;;;;;9.02;1.10;;;;;;;;;;5105998;28;20043;-75
2023/06/06 07:36:14;;;;;;;4.18;0.80;;;;;;;;;;5105684;28;20043;-75
2023/06/06 07:38:44;;;;;;;3.45;1.05;;;;;;;;;;5087985;28;20342;-75
2023/06/06 07:41:14;;;;;;;8.70;1.10;;;;;;;;;;5106039;28;20054;-76
2023/06/06 07:43:44;;;;;;;4.18;0.70;;;;;;;;;;5106273;28;20410;-75
2023/06/06 07:46:14;;;;;;;;;;;;;;;;;;5106720;28;20415;-76
2023/06/06 07:48:48;;;;;;;5.07;1.17;;;;;;;;;;5105928;28;19931;-75
2023/06/06 07:51:18;;;;;;;6.95;1.00;;;;;;;;;;5106100;28;20054;-75
2023/06/06 07:53:49;;;;;;;7.80;1.67;;;;;;;;;;5087739;28;20524;-74
2023/06/06 07:56:20;;;;;;;9.65;1.13;;;;;;;;;;5105582;28;20414;-75
2023/06/06 07:58:55;;;;;;;6.10;1.45;;;;;;;;;;5106204;28;20410;-75
2023/06/06 08:01:27;;;;;;;6.55;0.90;;;;;;;;;;5106378;28;20498;-75
2023/06/06 08:03:59;;;;;;;6.45;0.95;;;;;;;;;;5105670;28;20055;-75
2023/06/06 08:06:32;;;;;;;5.75;0.80;;;;;;;;;;5105894;28;20383;-77
2023/06/06 08:09:08;;;;;;;4.55;1.00;;;;;;;;;;5105750;28;20047;-76
2023/06/06 08:11:38;;;;;;;7.38;1.30;;;;;;;;;;5105655;28;20062;-75
2023/06/06 08:14:09;;;;;;;6.20;0.93;;;;;;;;;;5105450;28;20517;-75
2023/06/06 08:16:39;;;;;;;8.25;0.98;;;;;;;;;;5106032;28;20047;-77
2023/06/06 08:19:12;;;;;;;12.18;0.90;;;;;;;;;;5105548;28;20043;-76
2023/06/06 08:21:42;;;;;;;11.65;1.33;;;;;;;;;;5105008;28;20070;-75
2023/06/06 08:24:13;;;;;;;9.15;1.27;;;;;;;;;;5105836;28;20044;-76
2023/06/06 08:26:43;;;;;;;10.43;1.02;;;;;;;;;;5105625;28;20048;-76
2023/06/06 08:29:14;;;;;;;5.10;0.95;;;;;;;;;;5105376;28;20043;-75
2023/06/06 08:31:53;;;;;;;6.18;0.75;;;;;;;;;;5086548;28;20048;-75
2023/06/06 08:34:26;;;;;;;6.57;0.90;;;;;;;;;;5105550;28;20051;-75
2023/06/06 08:36:57;;;;;;;4.90;1.10;;;;;;;;;;5087762;28;20525;-75
2023/06/06 08:39:27;;;;;;;4.70;0.82;;;;;;;;;;5104903;28;20047;-75
2023/06/06 08:41:59;;;;;;;11.82;1.00;;;;;;;;;;5085813;28;20055;-77
2023/06/06 08:44:30;;;;;;;8.38;1.35;;;;;;;;;;5105166;28;20051;-76
2023/06/06 08:47:01;;;;;;;6.85;1.38;;;;;;;;;;5107593;28;20372;-75
2023/06/06 08:49:36;;;;;;;10.80;1.33;;;;;;;;;;5109480;28;20039;-74
2023/06/06 08:52:07;;;;;;;7.30;0.90;;;;;;;;;;5108940;28;20550;-76
2023/06/06 08:54:38;;;;;;;13.35;2.13;;;;;;;;;;5108948;28;20044;-75
2023/06/06 08:57:08;;;;;;;7.05;0.95;;;;;;;;;;5109502;28;20379;-76
2023/06/06 08:59:40;;;;;;;8.00;1.15;;;;;;;;;;5108904;28;20060;-76
2023/06/06 09:02:10;;;;;;;7.30;1.27;;;;;;;;;;5089693;28;20097;-77
2023/06/06 09:04:42;;;;;;;8.48;0.90;;;;;;;;;;5108948;28;20043;-77
2023/06/06 09:07:15;;;;;;;4.45;0.90;;;;;;;;;;5109369;28;20051;-76
2023/06/06 09:09:48;;;;;;;5.90;1.00;;;;;;;;;;5108749;28;20051;-77
2023/06/06 09:12:19;;;;;;;4.38;0.88;;;;;;;;;;5108980;28;20054;-76
2023/06/06 09:14:51;;;;;;;7.32;0.80;;;;;;;;;;5108498;28;20413;-76
2023/06/06 09:17:22;;;;;;;3.00;0.80;;;;;;;;;;5108730;28;20058;-76
2023/06/06 09:19:52;;;;;;;5.63;1.13;;;;;;;;;;5108234;28;20051;-75
2023/06/06 09:22:22;;;;;;;;;;;;;;;;;;5109646;28;20489;-75
2023/06/06 09:24:56;;;;;;;12.10;1.70;;;;;;;;;;5108600;28;20406;-75
2023/06/06 09:27:31;;;;;;;10.15;1.23;;;;;;;;;;5108804;28;20054;-76
2023/06/06 09:30:04;;;;;;;6.28;0.82;;;;;;;;;;5108654;28;20387;-75
2023/06/06 09:32:35;;;;;;;2.35;0.65;;;;;;;;;;5089325;28;20056;-75
2023/06/06 09:35:07;;;;;;;2.85;0.57;;;;;;;;;;5108398;28;20043;-75
2023/06/06 09:37:40;;;;;;;2.20;0.85;;;;;;;;;;5108651;28;21091;-75
2023/06/06 09:40:16;;;;;;;6.95;0.73;;;;;;;;;;5108716;28;20046;-76
2023/06/06 09:42:49;;;;;;;3.38;1.30;;;;;;;;;;5108204;28;20619;-76
2023/06/06 09:45:21;;;;;;;2.58;0.80;;;;;;;;;;5108524;28;20047;-77
2023/06/06 09:47:52;;;;;;;10.00;2.03;;;;;;;;;;5108478;28;20102;-75
2023/06/06 09:50:23;;;;;;;5.47;1.10;;;;;;;;;;5108160;28;20043;-76
2023/06/06 09:52:53;;;;;;;15.43;1.73;;;;;;;;;;5108058;28;20054;-75
2023/06/06 09:55:24;;;;;;;;;;;;;;;;;;5108657;28;20036;-76
2023/06/06 09:57:57;;;;;;;6.18;0.90;;;;;;;;;;5107478;28;19924;-77
2023/06/06 10:00:28;;;;;;;8.63;1.35;;;;;;;;;;5108141;28;20414;-76
2023/06/06 10:03:01;;;;;;;16.70;1.00;;;;;;;;;;5107935;28;20458;-76
2023/06/06 10:05:33;;;;;;;5.15;1.88;;;;;;;;;;5088389;28;20043;-76
2023/06/06 10:08:09;;;;;;;3.58;1.17;;;;;;;;;;5107490;28;20058;-76
2023/06/06 10:10:43;;;;;;;5.07;1.65;;;;;;;;;;5108303;28;20524;-77
2023/06/06 10:13:18;;;;;;;11.68;1.90;;;;;;;;;;5108164;28;20044;-76
2023/06/06 10:15:50;;;;;;;9.55;1.73;;;;;;;;;;5107883;28;20051;-76
2023/06/06 10:18:23;;;;;;;7.70;1.20;;;;;;;;;;5089379;28;20054;-76
2023/06/06 10:20:56;;;;;;;13.38;2.60;;;;;;;;;;5106804;28;20545;-75
2023/06/06 10:23:27;;;;;;;19.27;2.80;;;;;;;;;;5107727;28;20062;-76
2023/06/06 10:25:59;;;;;;;27.30;1.95;;;;;;;;;;5089856;28;20043;-76
2023/06/06 10:28:36;;;;;;;18.33;1.80;;;;;;;;;;5088849;28;20066;-75
2023/06/06 10:31:34;;;;;;;55.45;4.68;;;;;;;;;;5107256;28;20058;-77
2023/06/06 10:34:10;;;;;;;12.63;1.80;;;;;;;;;;5107393;28;20048;-75
2023/06/06 10:36:44;;;;;;;32.80;5.50;;;;;;;;;;5088287;28;20051;-75
2023/06/06 10:39:25;;;;;;;23.35;4.47;;;;;;;;;;5106660;28;20043;-77
2023/06/06 10:42:10;;;;;;;9.15;3.15;;;;;;;;;;5107318;28;20040;-75
2023/06/06 10:44:44;;;;;;;15.60;2.80;;;;;;;;;;5106944;28;20050;-73
2023/06/06 10:47:21;;;;;;;8.30;3.65;;;;;;;;;;5106688;28;20062;-79
2023/06/06 10:50:11;;;;;;;25.35;3.15;;;;;;;;;;5107195;28;20043;-75
2023/06/06 10:52:51;;;;;;;34.75;3.15;;;;;;;;;;5106940;28;20759;-74
2023/06/06 10:55:25;;;;;;;20.90;2.63;;;;;;;;;;5106583;28;20058;-75
2023/06/06 10:58:14;;;;;;;28.95;3.20;;;;;;;;;;5088473;28;20055;-74
2023/06/06 11:00:49;;;;;;;26.77;3.13;;;;;;;;;;5106972;28;20051;-76
2023/06/06 11:03:30;;;;;;;62.33;3.65;;;;;;;;;;5106747;28;20056;-75
2023/06/06 11:06:02;;;;;;;48.20;3.20;;;;;;;;;;5106966;28;20039;-76
2023/06/06 11:08:32;;;;;;;74.18;3.63;;;;;;;;;;5106548;28;20042;-74
2023/06/06 11:11:25;;;;;;;46.95;2.97;;;;;;;;;;5106110;28;20050;-75
2023/06/06 11:14:03;;;;;;;38.25;2.28;;;;;;;;;;5106214;28;20592;-75
2023/06/06 11:16:38;;;;;;;83.72;3.67;;;;;;;;;;5106525;28;20050;-74
2023/06/06 11:19:11;;;;;;;120.82;6.93;;;;;;;;;;5105784;28;20048;-75
2023/06/06 11:21:47;;;;;;;135.88;7.05;;;;;;;;;;5106271;28;20047;-77
2023/06/06 11:24:19;;;;;;;69.43;3.50;;;;;;;;;;5087146;28;20055;-75
2023/06/06 11:26:52;;;;;;;77.15;4.55;;;;;;;;;;5106032;28;20046;-77
2023/06/06 11:29:25;;;;;;;37.78;3.40;;;;;;;;;;5106126;28;20044;-77
2023/06/06 11:32:00;;;;;;;72.53;4.00;;;;;;;;;;5106354;28;20043;-77
2023/06/06 11:34:32;;;;;;;45.47;3.38;;;;;;;;;;5106705;28;20040;-76
2023/06/06 11:37:03;;;;;;;24.30;2.80;;;;;;;;;;5105552;28;20043;-75
2023/06/06 11:39:33;;;;;;;47.10;2.97;;;;;;;;;;5105240;28;20075;-76
2023/06/06 11:42:05;;;;;;;18.52;2.65;;;;;;;;;;5105764;28;20039;-74
2023/06/06 11:44:37;;;;;;;42.55;4.50;;;;;;;;;;5106069;28;20051;-75
2023/06/06 11:47:08;;;;;;;76.15;5.13;;;;;;;;;;5106665;28;20517;-74
2023/06/06 11:49:43;;;;;;;116.68;4.30;;;;;;;;;;5106786;28;20055;-74
2023/06/06 11:52:16;;;;;;;51.00;4.28;;;;;;;;;;5105862;28;20044;-75
2023/06/06 11:55:04;;;;;;;50.10;3.20;;;;;;;;;;5087331;28;20818;-74
2023/06/06 11:57:35;;;;;;;133.95;4.53;;;;;;;;;;5087547;28;20059;-74
2023/06/06 12:00:10;;;;;;;52.85;2.55;;;;;;;;;;5088553;28;20059;-74
2023/06/06 12:02:42;;;;;;;47.25;5.00;;;;;;;;;;5104598;28;20052;-75
2023/06/06 12:05:26;;;;;;;56.65;3.13;;;;;;;;;;5106164;28;20044;-74
2023/06/06 12:08:00;;;;;;;44.92;3.85;;;;;;;;;;5104341;28;20047;-74
2023/06/06 12:10:31;;;;;;;28.45;2.45;;;;;;;;;;5088525;28;20051;-76
2023/06/06 12:13:02;;;;;;;28.38;3.08;;;;;;;;;;5105723;28;20059;-77
2023/06/06 12:15:47;;;;;;;99.78;4.47;;;;;;;;;;5105982;28;20535;-77
2023/06/06 12:18:18;;;;;;;38.83;2.78;;;;;;;;;;5105672;28;20044;-77
2023/06/06 12:20:48;;;;;;;29.27;3.47;;;;;;;;;;5104854;28;20055;-75
2023/06/06 12:23:30;;;;;;;18.85;3.22;;;;;;;;;;5087632;28;20040;-76
2023/06/06 12:26:02;;;;;;;34.25;3.28;;;;;;;;;;5105801;28;20058;-76
2023/06/06 12:28:32;;;;;;;30.20;2.03;;;;;;;;;;5104933;28;20055;-76
2023/06/06 12:31:17;;;;;;;15.32;2.45;;;;;;;;;;5106269;28;20046;-78
2023/06/06 12:33:57;;;;;;;9.18;1.73;;;;;;;;;;5105197;28;20059;-76
2023/06/06 12:36:27;;;;;;;20.45;1.98;;;;;;;;;;5105229;28;20051;-76
2023/06/06 12:39:00;;;;;;;49.70;2.28;;;;;;;;;;5087859;28;20054;-75
2023/06/06 12:41:40;;;;;;;21.67;2.90;;;;;;;;;;5105560;28;20403;-76
2023/06/06 12:44:13;;;;;;;5.63;1.92;;;;;;;;;;5105210;28;20418;-77
2023/06/06 12:46:44;;;;;;;4.47;2.35;;;;;;;;;;5105455;28;20810;-79
2023/06/06 12:49:15;;;;;;;4.53;2.28;;;;;;;;;;5104008;28;20052;-76
2023/06/06 12:51:47;;;;;;;4.00;1.75;;;;;;;;;;5086461;28;20048;-76
2023/06/06 12:54:18;;;;;;;3.58;1.55;;;;;;;;;;5105590;28;20051;-76
2023/06/06 12:56:49;;;;;;;3.53;2.03;;;;;;;;;;5105412;28;20529;-78
2023/06/06 12:59:26;;;;;;;3.95;1.90;;;;;;;;;;5104902;28;20056;-78
2023/06/06 13:01:56;;;;;;;2.10;1.55;;;;;;;;;;5104907;28;20614;-78
2023/06/06 13:04:28;;;;;;;3.13;1.60;;;;;;;;;;5105168;28;20047;-76
2023/06/06 13:06:58;;;;;;;3.35;1.38;;;;;;;;;;5086723;28;20055;-76
2023/06/06 13:09:29;;;;;;;3.67;1.50;;;;;;;;;;5105037;28;20043;-76
2023/06/06 13:11:59;;;;;;;1.90;1.23;;;;;;;;;;5104831;28;20044;-78
2023/06/06 13:14:31;;;;;;;1.77;1.20;;;;;;;;;;5104981;28;20054;-76
2023/06/06 13:17:04;;;;;;;3.72;1.38;;;;;;;;;;5105150;28;20039;-76
2023/06/06 13:19:43;;;;;;;2.35;1.20;;;;;;;;;;5104589;28;20514;-77
2023/06/06 13:22:13;;;;;;;14.90;2.60;;;;;;;;;;5086659;28;20074;-77
2023/06/06 13:24:46;;;;;;;3.60;1.42;;;;;;;;;;5105011;28;20062;-76
2023/06/06 13:27:17;;;;;;;3.03;1.35;;;;;;;;;;5085936;28;20391;-76
2023/06/06 13:29:47;;;;;;;3.13;1.23;;;;;;;;;;5104248;28;20048;-76
2023/06/06 13:32:18;;;;;;;2.10;1.23;;;;;;;;;;5104832;28;20066;-77
2023/06/06 13:34:49;;;;;;;1.98;1.20;;;;;;;;;;5089759;28;20406;-76
2023/06/06 13:37:20;;;;;;;3.75;1.50;;;;;;;;;;5108844;28;20051;-76
2023/06/06 13:39:51;;;;;;;2.83;1.35;;;;;;;;;;5108648;28;20044;-77
2023/06/06 13:42:22;;;;;;;2.40;1.13;;;;;;;;;;5108463;28;20050;-76
2023/06/06 13:44:52;;;;;;;6.20;1.38;;;;;;;;;;5108362;28;20048;-77
2023/06/06 13:47:26;;;;;;;4.15;1.70;;;;;;;;;;5108373;28;20862;-75
2023/06/06 13:49:57;;;;;;;2.88;1.25;;;;;;;;;;5108281;28;20054;-77
2023/06/06 13:52:28;;;;;;;2.10;1.35;;;;;;;;;;5107751;28;20039;-78
2023/06/06 13:54:59;;;;;;;3.10;1.63;;;;;;;;;;5108261;28;20051;-76
2023/06/06 13:57:33;;;;;;;5.57;1.63;;;;;;;;;;5108249;28;20051;-77
2023/06/06 14:00:12;;;;;;;1.25;1.13;;;;;;;;;;5107872;28;20054;-76
2023/06/06 14:02:42;;;;;;;1.50;1.20;;;;;;;;;;5108407;28;20058;-76
2023/06/06 14:05:14;;;;;;;2.92;1.27;;;;;;;;;;5107523;28;20055;-77
2023/06/06 14:07:46;;;;;;;4.35;1.20;;;;;;;;;;5107368;28;20050;-76
2023/06/06 14:10:16;;;;;;;2.90;1.33;;;;;;;;;;5108311;28;20048;-76
2023/06/06 14:12:49;;;;;;;5.13;1.63;;;;;;;;;;5072430;28;20054;-77
2023/06/06 14:15:19;;;;;;;2.10;1.42;;;;;;;;;;5107559;28;20489;-77
2023/06/06 14:17:50;;;;;;;1.73;1.50;;;;;;;;;;5089605;28;20050;-77
2023/06/06 14:20:32;;;;;;;7.63;2.00;;;;;;;;;;5107437;28;20047;-78
2023/06/06 14:23:04;;;;;;;4.38;1.60;;;;;;;;;;5107130;28;20410;-78
2023/06/06 14:25:35;;;;;;;3.08;1.95;;;;;;;;;;5107285;28;20074;-80
2023/06/06 14:28:06;;;;;;;3.38;1.42;;;;;;;;;;5107467;28;20532;-77
2023/06/06 14:30:38;;;;;;;8.00;1.98;;;;;;;;;;5107330;28;20121;-78
2023/06/06 14:33:07;;;;;;;2.15;1.40;;;;;;;;;;5107597;28;20062;-77
2023/06/06 14:35:38;;;;;;;3.28;1.60;;;;;;;;;;5107914;28;20070;-77
2023/06/06 14:38:10;;;;;;;2.05;1.13;;;;;;;;;;5106931;28;20047;-78
2023/06/06 14:40:40;;;;;;;3.30;1.27;;;;;;;;;;5107341;28;20070;-78
2023/06/06 14:43:11;;;;;;;10.13;2.20;;;;;;;;;;5106874;28;20047;-74
2023/06/06 14:45:41;;;;;;;2.83;1.63;;;;;;;;;;5106465;28;20043;-80
2023/06/06 14:48:12;;;;;;;4.45;1.20;;;;;;;;;;5106662;28;20048;-78
2023/06/06 14:50:42;;;;;;;4.82;1.80;;;;;;;;;;5107551;28;20047;-78
2023/06/06 14:53:12;;;;;;;5.82;1.67;;;;;;;;;;5106728;28;20438;-76
2023/06/06 14:55:46;;;;;;;5.55;2.65;;;;;;;;;;5106743;28;20113;-77
2023/06/06 14:58:38;;;;;;;2.90;1.63;;;;;;;;;;5106195;28;20043;-76
2023/06/06 15:01:10;;;;;;;4.13;1.63;;;;;;;;;;5105245;28;20532;-76
2023/06/06 15:03:41;;;;;;;2.63;1.70;;;;;;;;;;5106739;28;20481;-78
2023/06/06 15:06:12;;;;;;;2.25;1.42;;;;;;;;;;5106725;28;20048;-80
2023/06/06 15:08:42;;;;;;;4.60;1.33;;;;;;;;;;5106082;28;20055;-77
2023/06/06 15:11:15;;;;;;;3.72;1.48;;;;;;;;;;5107197;28;20047;-76
2023/06/06 15:13:46;;;;;;;3.25;1.30;;;;;;;;;;5106212;28;20075;-79
2023/06/06 15:16:15;;;;;;;1.40;1.20;;;;;;;;;;5105855;28;20047;-77